x

Nanakwa Shoal (46181) Weather Station

10:00am - Sun 23rd Apr 2017 All times are PDT. -7 hours from GMT.

  • Peak Period 3s
  • Wind
    2mph, 4mph gusts
  • Sea Temp 48°f
  • Air Temp 47°f
  • Sea Pressure 1009.4mb
  • Nanakwa Shoal
  • Nanakwa Shoal

More Historic Weather Station data

Upgrade to MSW Pro to gain access to the past 30 days of data for over 8000 Wavebouys and Weather Stations around the globe.

Join Pro

Comparision Forecast

View Surf forecast
   
Sun 04/23 10:00am  -  3s 2 4 mph 1009.4mb 48f 47f
9:00am 0.3ft 3s 4 7 mph 1009.2mb 48f 46f
8:00am  -  3s 2 4 mph 1009.1mb 48f 46f
7:00am 0.3ft 2s 7 9 mph 1009mb 48f 47f
6:00am 0.3ft 3s 7 13 mph 1008.6mb 48f 48f
5:00am  -  3s 7 9 mph 1008.2mb 48f 48f
4:00am  -  3s 9 11 mph 1007.7mb 48f 48f
3:00am  -  3s 9 13 mph 1007.5mb 49f 50f
2:00am  -  3s 4 7 mph 1007.3mb 48f 50f
1:00am 0.3ft 2s 4
mph
1007mb 48f 49f
12:00am 0.3ft 4s 4 7 mph 1006.5mb 48f 49f
Sat 04/22 11:00pm  -  2s 9 11 mph 1006.5mb 49f 50f
10:00pm 0.3ft 2s 11 16 mph 1006.4mb 49f 54f
9:00pm  -  3s 13 18 mph 1006mb 50f 55f
8:00pm 0.3ft 3s 11 16 mph 1005.7mb 50f 57f
7:00pm  -  2s 7 9 mph 1005.5mb 50f 59f
6:00pm 0.3ft 2s 4 7 mph 1005.6mb 50f 61f
5:00pm 0.3ft 3s 11 13 mph 1005.8mb 50f 59f
4:00pm 0.3ft 2s 16 20 mph 1006.1mb 50f 61f
3:00pm 0.3ft 2s 16 20 mph 1006.3mb 50f 62f
2:00pm 0.3ft 2s 13 29 mph 1006.4mb 49f 61f
1:00pm 0.3ft 2s 13 20 mph 1006.9mb 48f 56f
12:00pm 0.7ft 2s 18 22 mph 1007.3mb 48f 55f
11:00am 0.7ft 2s 20 25 mph 1008.2mb 48f 53f
10:00am 0.7ft 2s 18 22 mph 1009.5mb 48f 50f
9:00am 0.7ft 2s 20 25 mph 1010.4mb 49f 49f
8:00am 0.3ft 2s 18 22 mph 1011.3mb 49f 49f
7:00am 0.3ft 2s 20 29 mph 1011.9mb 49f 48f
6:00am 0.3ft 2s 13 20 mph 1012.9mb 49f 48f
5:00am 0.7ft 2s 16 22 mph 1013.7mb 49f 49f
4:00am 0.7ft 2s 16 20 mph 1014.5mb 49f 49f
3:00am 0.7ft 2s 16 22 mph 1014.9mb 49f 49f
2:00am 0.3ft 2s 13 20 mph 1015.9mb 49f 48f
1:00am 0.3ft 2s 7 13 mph 1017mb 49f 48f
12:00am 0.3ft 2s 9 13 mph 1017.8mb 49f 48f
Fri 04/21 11:00pm 0.3ft 2s 7 11 mph 1018.3mb 49f 49f
10:00pm  -  3s 4
mph
1018.7mb 50f 50f
9:00pm  -  2s 2 4 mph 1019.3mb 50f 50f
8:00pm  -  3s 4 9 mph 1019.6mb 51f 52f
7:00pm  -  3s 4 7 mph 1020.3mb 52f 56f
6:00pm  -  3s 4 7 mph 1021.3mb 51f 56f
5:00pm  -  3s 7 9 mph 1022.4mb 51f 55f
4:00pm  -  3s 7 9 mph 1023.6mb 51f 53f
3:00pm  -  3s 7
mph
1024.7mb 51f 52f
2:00pm  -  2s 7
mph
1025.5mb 51f 51f
1:00pm 0.3ft 2s 7
mph
1026.5mb 50f 49f
12:00pm 0.3ft 2s 4 7 mph 1027.2mb 50f 48f
11:00am 0.3ft 2s 9
mph
1027.4mb 49f 47f
10:00am 0.3ft 2s 11 13 mph 1027.8mb 49f 46f
9:00am 0.3ft 2s 11 13 mph 1028.1mb 48f 45f
8:00am  -  3s 9
mph
1028.6mb 48f 44f
7:00am 0.3ft 3s 9 11 mph 1028.8mb 48f 45f
6:00am  -  3s 7 9 mph 1029mb 47f 44f
5:00am  -  3s 4 7 mph 1029mb 47f 45f
4:00am  -  3s 4 7 mph 1029.1mb 48f 45f
3:00am  -  3s 4 9 mph 1028.9mb 48f 45f
2:00am  -  3s 2 4 mph 1028.9mb 48f 46f
1:00am  -  3s 7
mph
1028.8mb 48f 45f
12:00am  -  3s 4
mph
1028.1mb 48f 46f
Thu 04/20 11:00pm  -  3s 4
mph
1027.4mb 48f 46f
10:00pm  -  3s 2 7 mph 1026.7mb 48f 46f
9:00pm  -  3s 2 4 mph 1025.9mb 47f 47f
8:00pm 0.3ft 3s 9
mph
1025.5mb 47f 47f
7:00pm 0.3ft 2s 7
mph
1024.9mb 49f 48f
6:00pm 0.3ft 2s 11 13 mph 1024.8mb 49f 48f
5:00pm 0.3ft 2s 7 9 mph 1024.7mb 49f 48f
4:00pm 0.3ft 2s 11 13 mph 1024.5mb 49f 47f
3:00pm 0.3ft 2s 9 11 mph 1024.2mb 49f 47f
2:00pm  -  2s 7
mph
1023.7mb 48f 46f
1:00pm 0.3ft 2s 7 9 mph 1023.2mb 47f 45f
12:00pm  -  3s 4 7 mph 1022.7mb 47f 44f
11:00am 0.3ft 3s 2
mph
1021.9mb 47f 44f
10:00am  -  3s 2 4 mph 1021.3mb 46f 43f
9:00am  -  3s 4
mph
1020.6mb 46f 42f
8:00am  -  3s 4 7 mph 1019.8mb 46f 42f
7:00am  -  3s 4
mph
1019.2mb 46f 42f
6:00am  -  3s 2 4 mph 1018.7mb 46f 42f
5:00am  -  3s 2 7 mph 1018.3mb 46f 42f
4:00am  -  3s 4 7 mph 1017.8mb 46f 42f
3:00am  -  3s 2 4 mph 1017.3mb 46f 43f
2:00am  -  3s 4 7 mph 1016.8mb 46f 43f
1:00am  -  3s 2 4 mph 1016.5mb 46f 43f
12:00am  -  3s  -  2 mph 1015.9mb 46f 43f
Wed 04/19 11:00pm 0.3ft 3s 4
mph
1015.5mb 46f 43f
10:00pm 0.3ft 2s 2 4 mph 1014.9mb 46f 44f
9:00pm 0.3ft 2s 4 7 mph 1014.3mb 46f 44f
8:00pm 0.3ft 2s 7 11 mph 1013.9mb 47f 45f
7:00pm 0.3ft 2s 9 11 mph 1013.6mb 47f 46f